createdAt,value
2022-11-12T00:00:28.323Z,7.53
2022-11-12T00:03:14.562Z,7.52
2022-11-12T00:06:01.193Z,7.47
2022-11-12T00:08:47.500Z,7.44
2022-11-12T00:11:35.155Z,7.46
2022-11-12T00:14:21.598Z,7.41
2022-11-12T00:17:07.648Z,7.49
2022-11-12T00:19:53.980Z,7.49
2022-11-12T00:22:40.458Z,7.49
2022-11-12T00:25:26.585Z,7.51
2022-11-12T00:28:14.181Z,7.51
2022-11-12T00:31:00.372Z,7.51
2022-11-12T00:33:46.448Z,7.49
2022-11-12T00:36:35.694Z,7.48
2022-11-12T00:39:22.275Z,7.50
2022-11-12T00:42:08.318Z,7.45
2022-11-12T00:44:55.900Z,7.35
2022-11-12T00:47:41.969Z,7.17
2022-11-12T00:50:28.206Z,7.05
2022-11-12T00:53:14.332Z,7.00
2022-11-12T00:56:05.031Z,7.02
2022-11-12T00:58:51.334Z,7.01
2022-11-12T01:01:39.371Z,7.05
2022-11-12T01:04:25.740Z,7.09
2022-11-12T01:07:12.090Z,7.04
2022-11-12T01:09:58.047Z,7.08
2022-11-12T01:12:44.286Z,7.18
2022-11-12T01:15:30.499Z,7.27
2022-11-12T01:18:17.851Z,7.34
2022-11-12T01:21:05.434Z,7.40
2022-11-12T01:23:52.454Z,7.44
2022-11-12T01:26:39.387Z,7.43
2022-11-12T01:29:25.992Z,7.45
2022-11-12T01:32:12.390Z,7.53
2022-11-12T01:34:59.872Z,7.50
2022-11-12T01:37:45.976Z,7.41
2022-11-12T01:40:33.143Z,7.39
2022-11-12T01:43:19.229Z,7.34
2022-11-12T01:46:13.329Z,7.35
2022-11-12T01:49:02.920Z,7.27
2022-11-12T01:51:56.133Z,7.31
2022-11-12T01:54:44.575Z,7.26
2022-11-12T01:57:35.753Z,7.26
2022-11-12T02:00:22.375Z,7.26
2022-11-12T02:03:13.712Z,7.18
2022-11-12T02:06:04.138Z,7.09
2022-11-12T02:08:52.612Z,7.03
2022-11-12T02:11:38.966Z,7.00
2022-11-12T02:14:24.190Z,7.01
2022-11-12T02:17:10.468Z,7.09
2022-11-12T02:19:59.876Z,7.14
2022-11-12T02:22:47.464Z,7.21
2022-11-12T02:25:34.482Z,7.26
2022-11-12T02:28:20.912Z,7.20
2022-11-12T02:31:07.432Z,7.19
2022-11-12T02:33:53.949Z,7.18
2022-11-12T02:36:40.138Z,7.18
2022-11-12T02:39:27.727Z,7.22
2022-11-12T02:42:13.940Z,7.21
2022-11-12T02:45:00.083Z,7.21
2022-11-12T02:47:46.302Z,7.21
2022-11-12T02:50:32.475Z,7.18
2022-11-12T02:53:18.597Z,7.19
2022-11-12T02:56:06.787Z,7.18
2022-11-12T02:58:52.956Z,7.21
2022-11-12T03:01:38.916Z,7.22
2022-11-12T03:04:25.130Z,7.24
2022-11-12T03:07:11.444Z,7.10
2022-11-12T03:09:57.459Z,6.78
2022-11-12T03:12:44.909Z,6.62
2022-11-12T03:15:31.296Z,6.53
2022-11-12T03:18:17.664Z,6.50
2022-11-12T03:21:04.019Z,6.40
2022-11-12T03:23:50.450Z,6.38
2022-11-12T03:26:36.581Z,6.24
2022-11-12T03:29:24.018Z,6.15
2022-11-12T03:32:10.253Z,6.08
2022-11-12T03:34:56.442Z,5.98
2022-11-12T03:37:42.628Z,5.96
2022-11-12T03:40:29.311Z,5.89
2022-11-12T03:43:15.554Z,5.88
2022-11-12T03:46:03.145Z,5.87
2022-11-12T03:48:49.307Z,5.82
2022-11-12T03:51:35.396Z,5.84
2022-11-12T03:54:21.602Z,5.88
2022-11-12T03:57:07.893Z,5.83
2022-11-12T03:59:54.014Z,5.79
2022-11-12T04:02:42.181Z,5.76
2022-11-12T04:05:46.789Z,5.70
2022-11-12T04:08:39.174Z,5.65
2022-11-12T04:11:25.525Z,5.73
2022-11-12T04:14:11.684Z,5.67
2022-11-12T04:17:15.302Z,5.69
2022-11-12T04:20:20.320Z,5.71
2022-11-12T04:23:06.711Z,5.62
2022-11-12T04:26:10.280Z,5.63
2022-11-12T04:29:13.979Z,5.61
2022-11-12T04:32:00.254Z,5.63
2022-11-12T04:34:46.712Z,5.67
2022-11-12T04:37:45.110Z,5.62
2022-11-12T04:40:49.491Z,5.66
2022-11-12T04:43:52.302Z,5.60
2022-11-12T04:46:38.549Z,5.65
2022-11-12T04:49:24.490Z,5.68
2022-11-12T04:52:10.655Z,5.64
2022-11-12T04:54:59.145Z,5.58
2022-11-12T04:57:45.312Z,5.54
2022-11-12T05:00:31.949Z,5.55
2022-11-12T05:03:18.075Z,5.48
2022-11-12T05:06:04.865Z,5.49
2022-11-12T05:08:50.939Z,5.53
2022-11-12T05:11:38.523Z,5.58
2022-11-12T05:14:24.931Z,5.60
2022-11-12T05:17:11.183Z,5.71
2022-11-12T05:19:57.203Z,5.69
2022-11-12T05:22:54.283Z,5.67
2022-11-12T05:25:49.743Z,5.74
2022-11-12T05:28:37.180Z,5.79
2022-11-12T05:31:23.303Z,5.76
2022-11-12T05:34:09.525Z,5.78
2022-11-12T05:36:55.658Z,5.78
2022-11-12T05:39:41.937Z,5.80
2022-11-12T05:42:28.335Z,5.85
2022-11-12T05:45:15.991Z,5.89
2022-11-12T05:48:02.390Z,5.89
2022-11-12T05:51:11.889Z,5.91
2022-11-12T05:53:56.875Z,5.91
2022-11-12T05:56:42.946Z,5.96
2022-11-12T05:59:29.044Z,5.90
2022-11-12T06:02:16.592Z,5.84
2022-11-12T06:05:02.920Z,5.85
2022-11-12T06:07:49.244Z,5.89
2022-11-12T06:10:36.122Z,5.85
2022-11-12T06:13:24.495Z,5.83
2022-11-12T06:16:10.901Z,5.86
2022-11-12T06:18:58.923Z,5.89
2022-11-12T06:21:45.423Z,5.84
2022-11-12T06:24:35.405Z,5.84
2022-11-12T06:27:21.652Z,5.88
2022-11-12T06:30:09.158Z,5.93
2022-11-12T06:32:55.553Z,6.02
2022-11-12T06:35:43.405Z,6.05
2022-11-12T06:38:30.946Z,6.05
2022-11-12T06:41:17.242Z,6.05
2022-11-12T06:44:04.854Z,6.07
2022-11-12T06:46:51.552Z,6.15
2022-11-12T06:49:37.913Z,6.14
2022-11-12T06:52:25.528Z,6.16
2022-11-12T06:55:11.710Z,6.13
2022-11-12T06:57:57.958Z,6.24
2022-11-12T07:00:44.064Z,6.23
2022-11-12T07:03:30.098Z,6.24
2022-11-12T07:06:20.182Z,6.23
2022-11-12T07:09:08.221Z,6.30
2022-11-12T07:11:54.516Z,6.40
2022-11-12T07:14:40.802Z,6.28
2022-11-12T07:17:26.997Z,6.27
2022-11-12T07:20:13.633Z,5.94
2022-11-12T07:23:01.285Z,5.93
2022-11-12T07:25:56.677Z,5.68
2022-11-12T07:28:43.223Z,5.60
2022-11-12T07:31:29.501Z,5.60
2022-11-12T07:34:15.579Z,5.59
2022-11-12T07:37:01.861Z,5.67
2022-11-12T07:39:48.036Z,5.62
2022-11-12T07:42:36.602Z,5.67
2022-11-12T07:45:23.112Z,5.72
2022-11-12T07:48:09.324Z,5.76
2022-11-12T07:51:01.712Z,5.75
2022-11-12T07:53:48.908Z,5.65
2022-11-12T07:56:35.253Z,5.55
2022-11-12T07:59:22.826Z,5.56
2022-11-12T08:02:10.248Z,5.65
2022-11-12T08:04:56.455Z,5.53
2022-11-12T08:07:42.850Z,5.53
2022-11-12T08:10:29.551Z,5.43
2022-11-12T08:13:15.877Z,5.54
2022-11-12T08:16:03.627Z,5.64
2022-11-12T08:18:50.084Z,5.64
2022-11-12T08:21:36.599Z,5.95
2022-11-12T08:24:22.783Z,5.71
2022-11-12T08:27:09.115Z,5.60
2022-11-12T08:29:55.358Z,5.53
2022-11-12T08:32:42.947Z,5.71
2022-11-12T08:35:30.874Z,5.90
2022-11-12T08:38:17.891Z,6.12
2022-11-12T08:41:06.518Z,6.02
2022-11-12T08:43:53.036Z,6.21
2022-11-12T08:46:39.119Z,6.36
2022-11-12T08:49:26.696Z,6.68
2022-11-12T08:52:12.861Z,6.81
2022-11-12T08:54:58.919Z,6.92
2022-11-12T08:57:46.081Z,7.00
2022-11-12T09:00:34.069Z,7.02
2022-11-12T09:03:21.807Z,6.87
2022-11-12T09:06:09.587Z,6.64
2022-11-12T09:08:55.733Z,6.65
2022-11-12T09:11:41.953Z,6.66
2022-11-12T09:14:28.220Z,6.75
2022-11-12T09:17:15.548Z,6.88
2022-11-12T09:20:01.648Z,6.90
2022-11-12T09:22:49.212Z,6.94
2022-11-12T09:25:36.485Z,7.05
2022-11-12T09:28:22.641Z,7.15
2022-11-12T09:31:09.640Z,7.31
2022-11-12T09:33:55.841Z,7.32
2022-11-12T09:36:42.221Z,7.24
2022-11-12T09:39:29.616Z,7.31
2022-11-12T09:42:19.728Z,7.14
2022-11-12T09:45:14.121Z,7.12
2022-11-12T09:48:07.550Z,7.11
2022-11-12T09:50:59.705Z,7.15
2022-11-12T09:53:51.673Z,7.20
2022-11-12T09:56:39.377Z,7.33
2022-11-12T09:59:29.599Z,7.37
2022-11-12T10:02:27.439Z,7.38
2022-11-12T10:05:27.336Z,7.44
2022-11-12T10:08:29.999Z,8.19
2022-11-12T10:12:01.260Z,8.08
2022-11-12T10:15:21.974Z,7.92
2022-11-12T10:18:14.375Z,7.90
2022-11-12T10:21:08.945Z,7.94
2022-11-12T10:23:55.590Z,7.95
2022-11-12T10:26:41.916Z,7.98
2022-11-12T10:29:33.060Z,8.03
2022-11-12T10:32:20.938Z,8.00
2022-11-12T10:35:07.891Z,8.00
2022-11-12T10:37:58.370Z,8.01
2022-11-12T10:40:44.833Z,8.03
2022-11-12T10:43:31.070Z,8.16
2022-11-12T10:46:20.641Z,8.26
2022-11-12T10:49:24.353Z,8.20
2022-11-12T10:52:23.089Z,8.23
2022-11-12T10:55:18.652Z,7.90
2022-11-12T10:58:07.004Z,7.75
2022-11-12T11:00:57.284Z,7.81
2022-11-12T11:03:48.423Z,7.90
2022-11-12T11:06:36.125Z,8.33
2022-11-12T11:09:22.366Z,8.18
2022-11-12T11:12:23.873Z,8.24
2022-11-12T11:15:20.496Z,8.28
2022-11-12T11:18:09.163Z,8.27
2022-11-12T11:21:04.802Z,8.28
2022-11-12T11:23:58.564Z,8.27
2022-11-12T11:26:57.573Z,8.21
2022-11-12T11:30:02.818Z,8.17
2022-11-12T11:33:10.235Z,8.20
2022-11-12T11:36:21.097Z,8.21
2022-11-12T11:39:20.735Z,8.30
2022-11-12T11:42:25.414Z,8.28
2022-11-12T11:45:17.939Z,8.35
2022-11-12T11:48:13.787Z,8.40
2022-11-12T11:51:05.976Z,8.40
2022-11-12T11:54:03.961Z,8.28
2022-11-12T11:56:56.938Z,8.36
2022-11-12T11:59:54.597Z,8.40
2022-11-12T12:03:06.596Z,8.08
2022-11-12T12:06:16.757Z,8.05
2022-11-12T12:09:28.127Z,8.13
2022-11-12T12:12:27.972Z,8.09
2022-11-12T12:15:37.699Z,7.99
2022-11-12T12:18:35.476Z,8.02
2022-11-12T12:21:25.894Z,7.98
2022-11-12T12:24:19.029Z,8.09
2022-11-12T12:27:13.303Z,8.07
2022-11-12T12:30:04.701Z,7.90
2022-11-12T12:32:56.817Z,8.11
2022-11-12T12:35:53.663Z,8.14
2022-11-12T12:38:45.430Z,8.08
2022-11-12T12:41:40.118Z,8.09
2022-11-12T12:44:44.877Z,8.05
2022-11-12T12:47:36.957Z,7.82
2022-11-12T12:50:24.435Z,7.79
2022-11-12T12:53:19.555Z,7.86
2022-11-12T12:56:07.511Z,7.94
2022-11-12T12:58:55.162Z,8.03
2022-11-12T13:01:41.531Z,8.10
2022-11-12T13:04:53.612Z,8.00
2022-11-12T13:07:43.092Z,8.30
2022-11-12T13:10:48.295Z,8.23
2022-11-12T13:13:36.286Z,8.21
2022-11-12T13:16:56.887Z,8.01
2022-11-12T13:19:47.437Z,8.05
2022-11-12T13:22:53.695Z,7.95
2022-11-12T13:25:40.492Z,8.06
2022-11-12T13:28:29.224Z,8.11
2022-11-12T13:31:28.874Z,8.24
2022-11-12T13:34:22.500Z,8.27
2022-11-12T13:37:21.009Z,8.32
2022-11-12T13:40:14.598Z,8.34
2022-11-12T13:43:07.973Z,8.43
2022-11-12T13:46:00.314Z,8.36
2022-11-12T13:48:49.009Z,8.43
2022-11-12T13:51:40.351Z,8.32
2022-11-12T13:54:34.485Z,8.34
2022-11-12T13:57:29.488Z,8.38
2022-11-12T14:00:26.337Z,8.39
2022-11-12T14:03:18.211Z,8.24
2022-11-12T14:06:15.567Z,8.27
2022-11-12T14:09:21.199Z,8.24
2022-11-12T14:12:34.960Z,8.14
2022-11-12T14:15:36.976Z,8.05
2022-11-12T14:18:34.996Z,7.95
2022-11-12T14:21:22.641Z,7.92
2022-11-12T14:24:13.360Z,7.89
2022-11-12T14:26:59.694Z,7.89
2022-11-12T14:29:47.220Z,7.91
2022-11-12T14:32:37.715Z,7.87
2022-11-12T14:35:30.914Z,7.97
2022-11-12T14:38:21.172Z,8.04
2022-11-12T14:41:10.767Z,8.05
2022-11-12T14:44:11.959Z,8.17
2022-11-12T14:47:01.349Z,8.20
2022-11-12T14:49:50.211Z,8.16
2022-11-12T14:52:40.917Z,8.20
2022-11-12T14:55:30.452Z,8.24
2022-11-12T14:58:18.448Z,8.22
2022-11-12T15:01:55.754Z,8.22
2022-11-12T15:04:38.147Z,8.23
2022-11-12T15:07:25.900Z,8.14
2022-11-12T15:10:34.366Z,8.07
2022-11-12T15:13:23.398Z,8.13
2022-11-12T15:16:12.024Z,8.13
2022-11-12T15:19:18.509Z,8.21
2022-11-12T15:22:06.283Z,8.22
2022-11-12T15:24:52.826Z,8.23
2022-11-12T15:27:41.049Z,8.30
2022-11-12T15:30:30.543Z,8.30
2022-11-12T15:33:22.138Z,8.30
2022-11-12T15:36:17.784Z,8.26
2022-11-12T15:39:12.911Z,8.24
2022-11-12T15:42:01.285Z,8.26
2022-11-12T15:44:48.477Z,8.23
2022-11-12T15:47:34.860Z,8.23
2022-11-12T15:50:22.696Z,8.22
2022-11-12T15:53:08.800Z,8.22
2022-11-12T15:55:56.527Z,8.22
2022-11-12T15:58:42.635Z,8.18
2022-11-12T16:01:28.975Z,8.15
2022-11-12T16:04:15.838Z,8.10
2022-11-12T16:07:02.455Z,8.13
2022-11-12T16:09:48.819Z,8.15
2022-11-12T16:12:36.340Z,8.17
2022-11-12T16:15:25.469Z,8.19
2022-11-12T16:18:11.969Z,8.22
2022-11-12T16:20:58.171Z,8.21
2022-11-12T16:23:44.467Z,8.21
2022-11-12T16:26:33.225Z,8.22
2022-11-12T16:29:21.059Z,8.24
2022-11-12T16:32:07.634Z,8.22
2022-11-12T16:34:58.385Z,8.26
2022-11-12T16:37:48.145Z,8.26
2022-11-12T16:40:34.454Z,8.27
2022-11-12T16:43:20.588Z,8.30
2022-11-12T16:46:15.861Z,8.29
2022-11-12T16:49:03.247Z,8.28
2022-11-12T16:51:50.503Z,8.27
2022-11-12T16:54:36.828Z,8.24
2022-11-12T16:57:23.126Z,8.28
2022-11-12T17:00:12.805Z,8.31
2022-11-12T17:03:00.313Z,8.32
2022-11-12T17:05:51.832Z,8.34
2022-11-12T17:08:38.372Z,8.35
2022-11-12T17:11:24.679Z,8.34
2022-11-12T17:14:10.983Z,8.35
2022-11-12T17:16:57.763Z,8.34
2022-11-12T17:19:46.437Z,8.31
2022-11-12T17:22:32.593Z,8.28
2022-11-12T17:25:18.900Z,8.29
2022-11-12T17:28:05.169Z,8.36
2022-11-12T17:30:51.358Z,8.38
2022-11-12T17:33:42.100Z,8.38
2022-11-12T17:36:29.663Z,8.31
2022-11-12T17:39:16.063Z,8.31
2022-11-12T17:42:02.247Z,8.28
2022-11-12T17:44:48.872Z,8.30
2022-11-12T17:47:40.143Z,8.26
2022-11-12T17:50:27.191Z,8.23
2022-11-12T17:53:15.005Z,8.28
2022-11-12T17:56:01.793Z,8.26
2022-11-12T17:58:49.664Z,8.27
2022-11-12T18:01:36.086Z,8.30
2022-11-12T18:04:23.954Z,8.31
2022-11-12T18:07:10.408Z,8.28
2022-11-12T18:09:57.794Z,8.25
2022-11-12T18:12:44.034Z,8.21
2022-11-12T18:15:31.764Z,8.20
2022-11-12T18:18:18.686Z,8.20
2022-11-12T18:21:05.734Z,8.20
2022-11-12T18:23:52.332Z,8.16
2022-11-12T18:26:40.087Z,8.14
2022-11-12T18:29:26.260Z,8.13
2022-11-12T18:32:12.325Z,8.10
2022-11-12T18:34:58.626Z,8.10
2022-11-12T18:37:45.699Z,8.11
2022-11-12T18:40:32.040Z,8.11
2022-11-12T18:43:19.621Z,8.08
2022-11-12T18:46:07.390Z,8.05
2022-11-12T18:48:53.863Z,8.09
2022-11-12T18:51:40.458Z,8.11
2022-11-12T18:54:26.719Z,8.11
2022-11-12T18:57:13.031Z,8.11
2022-11-12T19:00:00.614Z,8.14
2022-11-12T19:02:46.927Z,8.09
2022-11-12T19:05:33.243Z,8.15
2022-11-12T19:08:19.512Z,8.19
2022-11-12T19:11:07.743Z,8.15
2022-11-12T19:13:55.270Z,8.11
2022-11-12T19:16:44.660Z,8.10
2022-11-12T19:19:31.261Z,8.17
2022-11-12T19:22:17.321Z,8.14
2022-11-12T19:25:03.557Z,8.09
2022-11-12T19:27:50.098Z,8.08
2022-11-12T19:30:36.558Z,8.06
2022-11-12T19:33:24.389Z,8.05
2022-11-12T19:36:14.011Z,8.13
2022-11-12T19:39:02.465Z,8.25
2022-11-12T19:41:48.799Z,8.17
2022-11-12T19:44:34.880Z,8.15
2022-11-12T19:47:20.948Z,8.15
2022-11-12T19:50:09.764Z,8.20
2022-11-12T19:52:56.283Z,8.10
2022-11-12T19:55:42.591Z,8.14
2022-11-12T19:58:29.566Z,8.21
2022-11-12T20:01:18.106Z,8.26
2022-11-12T20:04:04.342Z,8.29
2022-11-12T20:06:51.808Z,8.26
2022-11-12T20:09:38.258Z,8.21
2022-11-12T20:12:25.139Z,8.14
2022-11-12T20:15:11.803Z,8.09
2022-11-12T20:17:57.925Z,8.03
2022-11-12T20:20:47.610Z,8.01
2022-11-12T20:23:36.208Z,7.93
2022-11-12T20:26:22.266Z,7.84
2022-11-12T20:29:08.511Z,7.85
2022-11-12T20:31:54.927Z,7.74
2022-11-12T20:34:41.195Z,7.72
2022-11-12T20:37:27.615Z,7.69
2022-11-12T20:40:15.037Z,7.68
2022-11-12T20:43:01.388Z,7.66
2022-11-12T20:45:51.609Z,7.71
2022-11-12T20:48:42.872Z,7.68
2022-11-12T20:51:30.201Z,7.67
2022-11-12T20:54:16.625Z,7.66
2022-11-12T20:57:04.146Z,7.67
2022-11-12T20:59:51.644Z,7.70
2022-11-12T21:02:38.517Z,7.69
2022-11-12T21:05:24.764Z,7.65
2022-11-12T21:08:10.955Z,7.65
2022-11-12T21:10:57.915Z,7.68
2022-11-12T21:13:45.716Z,7.63
2022-11-12T21:16:32.374Z,7.57
2022-11-12T21:19:18.605Z,7.54
2022-11-12T21:22:04.647Z,7.53
2022-11-12T21:24:50.963Z,7.55
2022-11-12T21:27:37.146Z,7.54
2022-11-12T21:30:24.713Z,7.52
2022-11-12T21:33:10.860Z,7.54
2022-11-12T21:35:57.606Z,7.56
2022-11-12T21:38:43.964Z,7.55
2022-11-12T21:41:31.928Z,7.54
2022-11-12T21:44:18.371Z,7.56
2022-11-12T21:47:05.953Z,7.56
2022-11-12T21:49:52.276Z,7.56
2022-11-12T21:52:38.547Z,7.61
2022-11-12T21:55:24.517Z,7.58
2022-11-12T21:58:10.695Z,7.57
2022-11-12T22:00:57.041Z,7.59
2022-11-12T22:03:45.751Z,7.64
2022-11-12T22:06:31.906Z,7.68
2022-11-12T22:09:18.135Z,7.68
2022-11-12T22:12:04.359Z,7.58
2022-11-12T22:14:50.461Z,7.56
2022-11-12T22:17:36.677Z,7.54
2022-11-12T22:20:24.079Z,7.54
2022-11-12T22:23:10.327Z,7.51
2022-11-12T22:25:58.124Z,7.49
2022-11-12T22:28:44.738Z,7.37
2022-11-12T22:31:32.643Z,7.28
2022-11-12T22:34:18.735Z,7.25
2022-11-12T22:37:06.483Z,7.19
2022-11-12T22:39:52.537Z,7.13
2022-11-12T22:42:38.625Z,7.11
2022-11-12T22:45:24.815Z,7.09
2022-11-12T22:48:11.048Z,7.10
2022-11-12T22:50:59.670Z,7.06
2022-11-12T22:53:47.774Z,6.98
2022-11-12T22:56:34.191Z,6.95
2022-11-12T22:59:20.615Z,6.97
2022-11-12T23:02:07.819Z,6.90
2022-11-12T23:04:53.918Z,6.84
2022-11-12T23:07:40.019Z,6.81
2022-11-12T23:10:27.452Z,6.79
2022-11-12T23:13:13.522Z,6.78
2022-11-12T23:15:59.943Z,6.61
2022-11-12T23:18:46.361Z,6.65
2022-11-12T23:21:32.428Z,6.60
2022-11-12T23:24:18.625Z,6.58
2022-11-12T23:27:05.993Z,6.61
2022-11-12T23:29:52.375Z,6.53
2022-11-12T23:32:38.598Z,6.48
2022-11-12T23:35:24.613Z,6.51
2022-11-12T23:38:10.781Z,6.42
2022-11-12T23:40:57.611Z,6.43
2022-11-12T23:43:45.635Z,6.38
2022-11-12T23:46:31.902Z,6.40
2022-11-12T23:49:18.105Z,6.29
2022-11-12T23:52:04.445Z,6.33
2022-11-12T23:54:50.689Z,6.27
2022-11-12T23:57:36.769Z,6.25
